Flugplatz Schmoldow

EDBY · Mecklenburg-Vorpommern, Deutschland

METAR-Geschichte EDBY · Flugplatz Schmoldow

Unten siehst du die METARs der letzten paar Tage. Wähle ein Jahr, um ältere METARs ab dem Jahr 2007 zu durchsuchen.

19. Juli 2024

Uhrzeit Code Wetter Temp. Sichtweite Wolkendecke Wind METAR/SPECI
18:50
V
22 °C 10 km+ - 030° 030° 7 kt METAR EDAH 191650Z 03007KT 360V060 CAVOK 22/16 Q1019
18:20
V
22 °C 10 km+ - 040° 040° 7 kt METAR EDAH 191620Z 04007KT 020V080 CAVOK 22/16 Q1020
17:50
V
23 °C 10 km+ - 050° 050° 8 kt METAR EDAH 191550Z 05008KT 010V070 CAVOK 23/16 Q1020
17:20
V
23 °C 10 km+ - 030° 030° 9 kt METAR EDAH 191520Z 03009KT 010V070 CAVOK 23/16 Q1020
16:50
V
23 °C 10 km+ - 020° 020° 9 kt METAR EDAH 191450Z 02009KT 360V060 CAVOK 23/16 Q1020
16:20
V
24 °C 10 km+ - 040° 040° 8 kt METAR EDAH 191420Z 04008KT 010V070 CAVOK 24/16 Q1020
15:50
V
24 °C 10 km+ - 040° 040° 7 kt METAR EDAH 191350Z 04007KT 360V070 CAVOK 24/16 Q1021
15:20
V
24 °C 10 km+ - 030° 030° 7 kt METAR EDAH 191320Z 03007KT 350V080 CAVOK 24/16 Q1021
14:50
V
24 °C 10 km+ - 060° 060° 8 kt METAR EDAH 191250Z 06008KT 030V090 CAVOK 24/16 Q1021
14:20
V
24 °C 10 km+ - 070° 070° 8 kt METAR EDAH 191220Z 07008KT 040V110 CAVOK 24/16 Q1021
13:50
V
24 °C 10 km+ - 060° 060° 6 kt METAR EDAH 191150Z 06006KT 010V090 9999 FEW036 SCT046 24/16 Q1021
13:20
V
26 °C 10 km+ - 140° 140° 5 kt METAR EDAH 191120Z 14005KT 090V180 9999 FEW038 26/16 Q1021
12:50
V
25 °C 10 km+ 4.800 ft Var Var 5 kt METAR EDAH 191050Z VRB05KT 9999 SCT038 BKN048 25/15 Q1022
12:20
V
24 °C 10 km+ - 160° 160° 5 kt METAR EDAH 191020Z 16005KT 130V190 9999 FEW045 24/15 Q1022
11:50
V
23 °C 10 km+ - 180° 180° 5 kt METAR EDAH 190950Z 18005KT CAVOK 23/15 Q1022
11:20
V
23 °C 10 km+ - 190° 190° 5 kt METAR EDAH 190920Z 19005KT 160V220 CAVOK 23/16 Q1022
10:50
V
22 °C 10 km+ - 180° 180° 5 kt METAR EDAH 190850Z 18005KT CAVOK 22/17 Q1022
10:20
V
21 °C 10 km+ - 180° 180° 4 kt METAR EDAH 190820Z 18004KT CAVOK 21/16 Q1022
09:50
V
21 °C 10 km+ - 180° 180° 4 kt METAR EDAH 190750Z 18004KT 130V210 9999 FEW044 21/16 Q1022
09:20
V
20 °C 10 km+ - 190° 190° 3 kt METAR EDAH 190720Z 19003KT 150V210 CAVOK 20/16 Q1022
08:50
V
20 °C 10 km+ - 170° 170° 4 kt METAR EDAH 190650Z 17004KT 120V190 CAVOK 20/15 Q1023
08:20
V
19 °C 10 km+ - 180° 180° 4 kt METAR EDAH 190620Z AUTO 18004KT 150V210 9999 // NCD 19/15 Q1022
07:50
V
19 °C 10 km+ - 200° 200° 4 kt METAR EDAH 190550Z AUTO 20004KT 160V230 9999 // FEW048/// 19/15 Q1022
07:20
V
19 °C 10 km+ - 190° 190° 5 kt METAR EDAH 190520Z AUTO 19005KT 9999 // FEW046/// 19/15 Q1022
06:50
V
18 °C 10 km+ 5.500 ft 180° 180° 5 kt METAR EDAH 190450Z AUTO 18005KT 9999 // SCT047/// BKN055/// 18/16 Q1023
06:20
V
18 °C 10 km+ 4.400 ft 190° 190° 5 kt METAR EDAH 190420Z AUTO 19005KT 9999 // BKN044/// 18/16 Q1023
05:50
V
17 °C 10 km+ - 180° 180° 5 kt METAR EDAH 190350Z AUTO 18005KT 9999 // SCT043/// 17/15 Q1023
05:20
V
17 °C 10 km+ 4.200 ft 180° 180° 6 kt METAR EDAH 190320Z AUTO 18006KT 9999 // BKN042/// 17/16 Q1023
04:50
V
16 °C 10 km+ 4.200 ft 180° 180° 4 kt METAR EDAH 190250Z AUTO 18004KT 9999 // BKN042/// 16/15 Q1023
04:20
V
17 °C 10 km+ - 180° 180° 5 kt METAR EDAH 190220Z AUTO 18005KT 9999 // NCD 17/16 Q1022
03:50
V
17 °C 10 km+ 4.600 ft 180° 180° 4 kt METAR EDAH 190150Z AUTO 18004KT 9999 // BKN046/// 17/16 Q1023
03:20
V
16 °C 10 km+ - 180° 180° 4 kt METAR EDAH 190120Z AUTO 18004KT 9999 // NCD 16/16 Q1023
02:50
V
15 °C 10 km+ - 120° 120° 3 kt METAR EDAH 190050Z AUTO 12003KT 9999 // NCD 15/15 Q1023
02:20
V
15 °C 10 km+ - 090° 090° 3 kt METAR EDAH 190020Z AUTO 09003KT 9999 // NCD 15/14 Q1023
01:50
V
15 °C 10 km+ - 100° 100° 3 kt METAR EDAH 182350Z AUTO 10003KT 9999 // NCD 15/15 Q1023
01:20
V
15 °C 10 km+ - 100° 100° 3 kt METAR EDAH 182320Z AUTO 10003KT 9999 // NCD 15/15 Q1023
00:50
V
15 °C 10 km+ - 100° 100° 4 kt METAR EDAH 182250Z AUTO 10004KT 9999 // NCD 15/15 Q1023
00:20
V
15 °C 10 km+ - 090° 090° 3 kt METAR EDAH 182220Z AUTO 09003KT 9999 // NCD 15/15 Q1023

18. Juli 2024

Uhrzeit Code Wetter Temp. Sichtweite Wolkendecke Wind METAR/SPECI
23:50
V
15 °C 10 km+ - 090° 090° 3 kt METAR EDAH 182150Z AUTO 09003KT 9999 // NCD 15/15 Q1023
23:20
V
16 °C 10 km+ - 100° 100° 3 kt METAR EDAH 182120Z AUTO 10003KT 9999 // NCD 16/15 Q1023
22:50
V
15 °C 10 km+ - 120° 120° 2 kt METAR EDAH 182050Z AUTO 12002KT 9999 // NCD 15/15 Q1023
22:20
V
16 °C 10 km+ - Var Var 1 kt METAR EDAH 182020Z AUTO VRB01KT 9999 // NCD 16/15 Q1023
21:50
V
17 °C 10 km+ - 050° 050° 3 kt METAR EDAH 181950Z AUTO 05003KT 9999 // NCD 17/15 Q1023
21:20
V
17 °C 10 km+ - 030° 030° 3 kt METAR EDAH 181920Z AUTO 03003KT 9999 // NCD 17/15 Q1023
20:50
V
18 °C 10 km+ - 030° 030° 3 kt METAR EDAH 181850Z AUTO 03003KT 010V070 9999 // NCD 18/16 Q1023
20:20
V
19 °C 10 km+ - 030° 030° 5 kt METAR EDAH 181820Z AUTO 03005KT 9999 // NCD 19/16 Q1023
19:50
V
20 °C 10 km+ - 040° 040° 6 kt METAR EDAH 181750Z AUTO 04006KT 9999 // NCD 20/16 Q1023
19:20
V
20 °C 10 km+ - 020° 020° 8 kt METAR EDAH 181720Z AUTO 02008KT 350V060 9999 // NCD 20/16 Q1023
18:50
V
21 °C 10 km+ - 020° 020° 7 kt METAR EDAH 181650Z 02007KT 350V050 CAVOK 21/16 Q1023
18:20
V
21 °C 10 km+ - 010° 010° 7 kt METAR EDAH 181620Z 01007KT 340V040 CAVOK 21/15 Q1022
17:50
V
21 °C 10 km+ - 030° 030° 7 kt METAR EDAH 181550Z 03007KT CAVOK 21/15 Q1023
17:20
V
21 °C 10 km+ - 050° 050° 7 kt METAR EDAH 181520Z 05007KT 010V080 9999 FEW049 21/16 Q1023
16:50
V
22 °C 10 km+ - 060° 060° 6 kt METAR EDAH 181450Z 06006KT 030V090 9999 SCT036 22/16 Q1023
16:20
V
22 °C 10 km+ - 060° 060° 4 kt METAR EDAH 181420Z 06004KT 9999 FEW036 SCT044 22/16 Q1023
15:50
V
23 °C 10 km+ - 060° 060° 5 kt METAR EDAH 181350Z 06005KT 010V090 9999 SCT033 23/16 Q1023
15:20
V
22 °C 10 km+ - 040° 040° 6 kt METAR EDAH 181320Z 04006KT 010V080 9999 SCT035 22/16 Q1023
14:50
V
22 °C 10 km+ - 060° 060° 6 kt METAR EDAH 181250Z 06006KT 030V090 9999 SCT038 22/15 Q1023
14:20
V
23 °C 10 km+ 3.900 ft 240° 240° 6 kt METAR EDAH 181220Z 24006KT 180V310 9999 BKN039 BKN045 23/14 Q1023
13:50
V
23 °C 10 km+ 3.500 ft 270° 270° 6 kt METAR EDAH 181150Z 27006KT 230V310 9999 BKN035 23/14 Q1023
13:20
V
22 °C 10 km+ 3.900 ft 230° 230° 9 kt METAR EDAH 181120Z 23009KT 180V260 9999 SCT034 BKN039 22/15 Q1023
12:50
V
22 °C 10 km+ 3.300 ft 220° 220° 10 kt METAR EDAH 181050Z 22010KT 9999 BKN033 22/14 Q1023
12:20
V
21 °C 10 km+ 3.100 ft 240° 240° 8 - 18 kt METAR EDAH 181020Z 24008G18KT 200V310 9999 OVC031 21/14 Q1023
11:50
V
21 °C 10 km+ - 240° 240° 6 kt METAR EDAH 180950Z 24006KT 180V280 9999 SCT029 21/14 Q1023
11:20
V
21 °C 10 km+ - 270° 270° 5 kt METAR EDAH 180920Z 27005KT 190V360 9999 SCT029 21/14 Q1023
10:50
V
20 °C 10 km+ - Var Var 4 kt METAR EDAH 180850Z VRB04KT 9999 SCT026 20/14 Q1023
10:20
V
20 °C 10 km+ - 280° 280° 5 kt METAR EDAH 180820Z 28005KT 220V350 9999 SCT023 20/13 Q1023
09:50
V
19 °C 10 km+ - 300° 300° 6 kt METAR EDAH 180750Z 30006KT 260V360 9999 FEW022 19/13 Q1023
09:20
V
19 °C 10 km+ - 260° 260° 9 kt METAR EDAH 180720Z 26009KT 9999 FEW019 19/13 Q1023
08:50
V
18 °C 10 km+ - 280° 280° 9 kt METAR EDAH 180650Z 28009KT 9999 FEW017 18/14 Q1023
08:20
V
18 °C 10 km+ - 280° 280° 9 kt METAR EDAH 180620Z AUTO 28009KT 9999 // NCD 18/14 Q1022
07:50
V
17 °C 10 km+ - 280° 280° 9 kt METAR EDAH 180550Z AUTO 28009KT 9999 // FEW012/// 17/14 Q1022
07:20
V
17 °C 10 km+ - 280° 280° 10 kt METAR EDAH 180520Z AUTO 28010KT 9999 // FEW012/// 17/14 Q1022
06:50
V
16 °C 10 km+ - 280° 280° 6 kt METAR EDAH 180450Z AUTO 28006KT 250V310 9999 // NCD 16/14 Q1022
06:20
V
16 °C 10 km+ 3.800 ft 280° 280° 7 kt METAR EDAH 180420Z AUTO 28007KT 9999 // BKN038/// 16/14 Q1022
05:50
V
16 °C 10 km+ 4.200 ft 270° 270° 7 kt METAR EDAH 180350Z AUTO 27007KT 9999 // FEW018/// OVC042/// 16/14 Q1022
05:20
V
15 °C 10 km+ - 280° 280° 8 kt METAR EDAH 180320Z AUTO 28008KT 9999 // FEW015/// 15/14 Q1022
04:50
V
14 °C 10 km+ - 260° 260° 6 kt METAR EDAH 180250Z AUTO 26006KT 9999 // NCD 14/14 Q1021
04:20
V
15 °C 10 km+ - 270° 270° 8 kt METAR EDAH 180220Z AUTO 27008KT 9999 // NCD 15/13 Q1021
03:50
V
15 °C 10 km+ - 270° 270° 7 kt METAR EDAH 180150Z AUTO 27007KT 9999 // NCD 15/14 Q1021
03:20
V
15 °C 10 km+ - 260° 260° 9 kt METAR EDAH 180120Z AUTO 26009KT 9999 // NCD 15/14 Q1021
02:50
V
16 °C 10 km+ - 260° 260° 10 kt METAR EDAH 180050Z AUTO 26010KT 9999 // SCT024/// 16/14 Q1021
02:20
M
16 °C 10 km+ 2.200 ft 270° 270° 8 kt METAR EDAH 180020Z AUTO 27008KT 9999 // BKN022/// 16/14 Q1021
01:50
V
16 °C 10 km+ 5.000 ft 270° 270° 9 kt METAR EDAH 172350Z AUTO 27009KT 9999 // BKN050/// 16/14 Q1021
01:20
V
16 °C 10 km+ 5.100 ft 260° 260° 8 kt METAR EDAH 172320Z AUTO 26008KT 9999 // OVC051/// 16/15 Q1020
00:50
V
16 °C 10 km+ - 270° 270° 7 kt METAR EDAH 172250Z AUTO 27007KT 9999 // SCT050/// 16/14 Q1020
00:20
V
16 °C 10 km+ - 260° 260° 9 kt METAR EDAH 172220Z AUTO 26009KT 9999 // NCD 16/14 Q1020

17. Juli 2024

Uhrzeit Code Wetter Temp. Sichtweite Wolkendecke Wind METAR/SPECI
23:50
V
17 °C 10 km+ - 270° 270° 11 kt METAR EDAH 172150Z AUTO 27011KT 9999 // FEW057/// 17/15 Q1020
23:20
V
17 °C 10 km+ 5.400 ft 260° 260° 10 kt METAR EDAH 172120Z AUTO 26010KT 9999 // BKN054/// 17/15 Q1020
22:50
V
17 °C 10 km+ - 270° 270° 10 kt METAR EDAH 172050Z AUTO 27010KT 9999 // NCD 17/15 Q1020
22:20
V
18 °C 10 km+ - 260° 260° 10 kt METAR EDAH 172020Z AUTO 26010KT 9999 // FEW049/// SCT059/// 18/15 Q1019
21:50
V
19 °C 10 km+ 5.800 ft 260° 260° 11 kt METAR EDAH 171950Z AUTO 26011KT 9999 // SCT030/// BKN058/// BKN100/// 19/15 Q1019
21:20
V
19 °C 10 km+ - 240° 240° 9 kt METAR EDAH 171920Z AUTO 24009KT 9999 // FEW033/// SCT061/// 19/15 Q1019
20:50
V
20 °C 10 km+ 10.000 ft 250° 250° 11 kt METAR EDAH 171850Z AUTO 25011KT 9999 // BKN100/// 20/15 Q1019
20:20
V
20 °C 10 km+ 7.000 ft 240° 240° 13 kt METAR EDAH 171820Z AUTO 24013KT 9999 // SCT039/// BKN070/// BKN100/// 20/15 Q1019
19:50
V
22 °C 10 km+ 6.700 ft 250° 250° 8 kt METAR EDAH 171750Z AUTO 25008KT 9999 // SCT056/// OVC067/// 22/15 Q1018
19:20
V
21 °C 10 km+ 9.100 ft 260° 260° 7 kt METAR EDAH 171720Z AUTO 26007KT 9999 // FEW040/// SCT070/// BKN091/// 21/14 Q1018
18:50
V
21 °C 10 km+ - 280° 280° 6 kt METAR EDAH 171650Z 28006KT 250V310 9999 SCT042 21/15 Q1018
18:20
V
22 °C 10 km+ - 260° 260° 12 kt METAR EDAH 171620Z 26012KT 9999 FEW045 22/14 Q1018
17:50
V
23 °C 10 km+ - 250° 250° 12 kt METAR EDAH 171550Z 25012KT 9999 FEW046 23/14 Q1018
17:20
V
23 °C 10 km+ - 250° 250° 11 kt METAR EDAH 171520Z 25011KT 210V270 CAVOK 23/15 Q1018
16:50
V
22 °C 10 km+ - 250° 250° 10 kt METAR EDAH 171450Z 25010KT CAVOK 22/15 Q1018
16:20
V
22 °C 10 km+ - 250° 250° 13 kt METAR EDAH 171420Z 25013KT CAVOK 22/14 Q1018
15:50
V
22 °C 10 km+ - 230° 230° 12 kt METAR EDAH 171350Z 23012KT 200V260 CAVOK 22/15 Q1017
15:20
V
21 °C 10 km+ - 250° 250° 11 kt METAR EDAH 171320Z 25011KT CAVOK 21/15 Q1017
14:50
M
20 °C 10 km+ 2.800 ft 240° 240° 9 kt METAR EDAH 171250Z 24009KT 210V270 9999 BKN028 20/15 Q1017
14:20
V
20 °C 10 km+ - 230° 230° 12 kt METAR EDAH 171220Z 23012KT 9999 FEW045 20/15 Q1017
13:50
V
19 °C 10 km+ 3.200 ft 230° 230° 14 kt METAR EDAH 171150Z 23014KT 9999 OVC032 19/15 Q1017
13:20
V
21 °C 10 km+ - 230° 230° 12 kt METAR EDAH 171120Z 23012KT 9999 FEW046 21/14 Q1017
12:50
V
20 °C 10 km+ - 230° 230° 13 kt METAR EDAH 171050Z 23013KT 9999 FEW027 20/14 Q1017
12:20
V
19 °C 10 km+ - 250° 250° 13 kt METAR EDAH 171020Z 25013KT 9999 SCT026 19/15 Q1017
11:50
V
20 °C 10 km+ 3.500 ft 230° 230° 12 kt METAR EDAH 170950Z 23012KT 9999 BKN035 20/14 Q1016
11:20
V
20 °C 10 km+ 4.200 ft 240° 240° 12 kt METAR EDAH 170920Z 24012KT 9999 FEW032 OVC042 20/14 Q1016
10:50
V
20 °C 10 km+ 4.600 ft 230° 230° 10 kt METAR EDAH 170850Z 23010KT 9999 SCT028 BKN046 20/14 Q1016
10:20
V
20 °C 10 km+ - 240° 240° 10 kt METAR EDAH 170820Z 24010KT 9999 FEW021 20/14 Q1016
09:50
V
19 °C 10 km+ - 240° 240° 11 kt METAR EDAH 170750Z 24011KT 200V260 9999 SCT018 19/15 Q1015
09:20
V
19 °C 10 km+ - 230° 230° 13 kt METAR EDAH 170720Z 23013KT 9999 SCT017 19/14 Q1015
08:50
V
18 °C 10 km+ - 230° 230° 13 kt METAR EDAH 170650Z 23013KT 9999 FEW016 18/14 Q1015
08:20
V
18 °C 10 km+ - 240° 240° 12 kt METAR EDAH 170620Z AUTO 24012KT 9999 // NCD 18/15 Q1015
07:50
V
18 °C 10 km+ - 240° 240° 11 kt METAR EDAH 170550Z AUTO 24011KT 220V280 9999 // NCD 18/15 Q1015
Eine Änderung melden